createdAt,value
2022-08-21T00:02:25.735Z,97567.59
2022-08-21T00:04:57.737Z,97559.53
2022-08-21T00:07:27.373Z,97561.06
2022-08-21T00:09:57.120Z,97572.59
2022-08-21T00:12:26.413Z,97572.84
2022-08-21T00:14:58.052Z,97560.19
2022-08-21T00:17:27.601Z,97568.34
2022-08-21T00:19:56.512Z,97566.44
2022-08-21T00:22:25.485Z,97570.59
2022-08-21T00:24:54.580Z,97565.59
2022-08-21T00:27:24.047Z,97563.06
2022-08-21T00:29:53.919Z,97569.16
2022-08-21T00:32:27.295Z,97564.19
2022-08-21T00:34:56.862Z,97569.97
2022-08-21T00:37:25.787Z,97567.59
2022-08-21T00:39:55.171Z,97565.50
2022-08-21T00:42:24.355Z,97568.84
2022-08-21T00:44:53.548Z,97567.31
2022-08-21T00:47:22.956Z,97575.63
2022-08-21T00:49:52.263Z,97584.56
2022-08-21T00:52:27.015Z,97583.78
2022-08-21T00:54:57.900Z,97579.84
2022-08-21T00:57:32.959Z,97585.75
2022-08-21T01:00:06.548Z,97590.16
2022-08-21T01:02:36.751Z,97587.66
2022-08-21T01:05:06.961Z,97591.56
2022-08-21T01:07:36.224Z,97584.59
2022-08-21T01:10:06.918Z,97590.16
2022-08-21T01:12:37.782Z,97592.13
2022-08-21T01:15:08.181Z,97596.03
2022-08-21T01:17:38.179Z,97602.97
2022-08-21T01:20:10.608Z,97601.88
2022-08-21T01:22:39.318Z,97606.25
2022-08-21T01:25:10.177Z,97607.59
2022-08-21T01:27:39.954Z,97612.94
2022-08-21T01:30:16.723Z,97607.63
2022-08-21T01:32:46.449Z,97615.25
2022-08-21T01:35:18.185Z,97617.16
2022-08-21T01:37:48.611Z,97622.59
2022-08-21T01:40:19.431Z,97617.63
2022-08-21T01:42:48.960Z,97623.56
2022-08-21T01:45:18.143Z,97635.63
2022-08-21T01:47:48.024Z,97627.22
2022-08-21T01:50:20.596Z,97627.81
2022-08-21T01:52:50.590Z,97636.00
2022-08-21T01:55:20.651Z,97635.19
2022-08-21T01:57:50.078Z,97639.50
2022-08-21T02:00:22.138Z,97643.56
2022-08-21T02:02:52.354Z,97647.88
2022-08-21T02:05:21.874Z,97651.56
2022-08-21T02:07:53.922Z,97657.25
2022-08-21T02:10:26.130Z,97661.63
2022-08-21T02:12:55.095Z,97659.34
2022-08-21T02:15:24.759Z,97656.13
2022-08-21T02:18:00.485Z,97652.66
2022-08-21T02:20:38.119Z,97656.88
2022-08-21T02:23:08.759Z,97656.56
2022-08-21T02:25:39.061Z,97666.78
2022-08-21T02:28:12.733Z,97667.63
2022-08-21T02:30:47.057Z,97665.88
2022-08-21T02:33:16.715Z,97666.56
2022-08-21T02:35:48.067Z,97658.09
2022-08-21T02:38:21.166Z,97668.81
2022-08-21T02:40:53.156Z,97664.06
2022-08-21T02:43:24.347Z,97671.28
2022-08-21T02:45:54.617Z,97670.47
2022-08-21T02:48:30.046Z,97669.25
2022-08-21T02:51:01.786Z,97669.41
2022-08-21T02:53:32.322Z,97680.41
2022-08-21T02:56:04.045Z,97679.03
2022-08-21T02:58:36.134Z,97679.47
2022-08-21T03:01:06.058Z,97680.88
2022-08-21T03:03:36.547Z,97677.94
2022-08-21T03:06:07.546Z,97682.50
2022-08-21T03:08:37.626Z,97683.34
2022-08-21T03:11:08.287Z,97685.91
2022-08-21T03:13:41.037Z,97690.47
2022-08-21T03:16:10.693Z,97689.22
2022-08-21T03:18:40.074Z,97685.28
2022-08-21T03:21:09.451Z,97683.06
2022-08-21T03:23:38.352Z,97694.91
2022-08-21T03:26:08.028Z,97703.38
2022-08-21T03:28:37.165Z,97702.53
2022-08-21T03:31:07.578Z,97700.56
2022-08-21T03:33:36.877Z,97702.81
2022-08-21T03:36:08.804Z,97701.09
2022-08-21T03:38:40.073Z,97698.59
2022-08-21T03:41:09.329Z,97698.97
2022-08-21T03:43:39.198Z,97696.06
2022-08-21T03:46:09.848Z,97697.78
2022-08-21T03:48:39.407Z,97701.09
2022-08-21T03:51:08.927Z,97709.09
2022-08-21T03:53:38.273Z,97709.34
2022-08-21T03:56:08.615Z,97704.75
2022-08-21T03:58:37.540Z,97711.31
2022-08-21T04:01:08.731Z,97712.06
2022-08-21T04:03:39.095Z,97704.16
2022-08-21T04:06:09.815Z,97707.06
2022-08-21T04:08:38.971Z,97711.31
2022-08-21T04:11:08.335Z,97704.19
2022-08-21T04:13:43.196Z,97712.09
2022-08-21T04:16:14.459Z,97717.16
2022-08-21T04:18:44.832Z,97706.31
2022-08-21T04:21:14.183Z,97717.69
2022-08-21T04:23:43.364Z,97715.34
2022-08-21T04:26:12.362Z,97716.25
2022-08-21T04:28:41.332Z,97715.94
2022-08-21T04:31:11.782Z,97718.28
2022-08-21T04:33:40.680Z,97727.03
2022-08-21T04:36:10.530Z,97714.69
2022-08-21T04:38:44.441Z,97720.88
2022-08-21T04:41:13.532Z,97720.25
2022-08-21T04:43:43.437Z,97726.06
2022-08-21T04:46:13.546Z,97724.44
2022-08-21T04:48:43.292Z,97721.13
2022-08-21T04:51:18.253Z,97713.00
2022-08-21T04:53:54.711Z,97721.53
2022-08-21T04:56:28.057Z,97712.00
2022-08-21T04:59:00.484Z,97712.44
2022-08-21T05:01:32.157Z,97717.19
2022-08-21T05:04:04.554Z,97722.72
2022-08-21T05:06:37.213Z,97720.34
2022-08-21T05:09:06.939Z,97718.44
2022-08-21T05:11:36.904Z,97712.72
2022-08-21T05:14:06.082Z,97713.59
2022-08-21T05:16:37.401Z,97711.22
2022-08-21T05:19:10.684Z,97707.69
2022-08-21T05:21:43.195Z,97707.44
2022-08-21T05:24:13.550Z,97713.44
2022-08-21T05:26:43.073Z,97715.22
2022-08-21T05:29:16.674Z,97716.81
2022-08-21T05:31:49.263Z,97709.06
2022-08-21T05:34:25.087Z,97704.81
2022-08-21T05:36:54.161Z,97701.63
2022-08-21T05:39:23.140Z,97709.38
2022-08-21T05:41:52.085Z,97708.78
2022-08-21T05:44:21.006Z,97710.19
2022-08-21T05:46:51.343Z,97709.97
2022-08-21T05:49:20.943Z,97719.09
2022-08-21T05:51:49.787Z,97719.75
2022-08-21T05:54:18.782Z,97715.53
2022-08-21T05:56:48.542Z,97709.38
2022-08-21T05:59:18.061Z,97712.72
2022-08-21T06:01:47.459Z,97709.06
2022-08-21T06:04:18.332Z,97714.00
2022-08-21T06:06:49.615Z,97707.94
2022-08-21T06:09:19.069Z,97700.38
2022-08-21T06:11:48.415Z,97696.34
2022-08-21T06:14:18.648Z,97703.72
2022-08-21T06:16:48.765Z,97703.72
2022-08-21T06:19:17.898Z,97712.28
2022-08-21T06:21:46.798Z,97700.19
2022-08-21T06:24:16.544Z,97698.13
2022-08-21T06:26:45.547Z,97697.78
2022-08-21T06:29:18.868Z,97694.28
2022-08-21T06:31:51.648Z,97688.19
2022-08-21T06:34:21.723Z,97695.03
2022-08-21T06:36:50.765Z,97688.03
2022-08-21T06:39:25.585Z,97685.22
2022-08-21T06:41:59.920Z,97687.06
2022-08-21T06:44:32.651Z,97683.56
2022-08-21T06:47:01.811Z,97680.50
2022-08-21T06:49:30.469Z,97685.16
2022-08-21T06:51:59.392Z,97682.41
2022-08-21T06:54:28.368Z,97682.75
2022-08-21T06:56:57.168Z,97679.59
2022-08-21T06:59:26.105Z,97671.47
2022-08-21T07:01:55.295Z,97670.63
2022-08-21T07:04:24.530Z,97674.00
2022-08-21T07:06:53.196Z,97665.34
2022-08-21T07:09:24.676Z,97659.53
2022-08-21T07:11:56.944Z,97658.19
2022-08-21T07:14:26.078Z,97655.41
2022-08-21T07:16:55.552Z,97642.09
2022-08-21T07:19:24.501Z,97649.06
2022-08-21T07:21:59.998Z,97649.41
2022-08-21T07:24:29.587Z,97644.78
2022-08-21T07:26:59.042Z,97643.94
2022-08-21T07:29:27.974Z,97641.13
2022-08-21T07:31:56.706Z,97638.63
2022-08-21T07:34:25.986Z,97639.31
2022-08-21T07:36:55.054Z,97637.97
2022-08-21T07:39:24.012Z,97640.47
2022-08-21T07:41:53.547Z,97637.97
2022-08-21T07:44:22.371Z,97635.31
2022-08-21T07:46:51.024Z,97635.97
2022-08-21T07:49:20.613Z,97632.63
2022-08-21T07:51:49.346Z,97629.44
2022-08-21T07:54:18.603Z,97626.44
2022-08-21T07:56:59.586Z,97612.63
2022-08-21T07:59:28.592Z,97618.63
2022-08-21T08:01:58.498Z,97617.97
2022-08-21T08:04:27.749Z,97609.63
2022-08-21T08:06:56.615Z,97604.66
2022-08-21T08:09:28.527Z,97603.28
2022-08-21T08:11:57.567Z,97603.16
2022-08-21T08:14:31.435Z,97596.84
2022-08-21T08:17:00.847Z,97594.00
2022-08-21T08:19:30.618Z,97589.34
2022-08-21T08:21:59.363Z,97585.66
2022-08-21T08:24:28.542Z,97581.38
2022-08-21T08:26:58.899Z,97578.44
2022-08-21T08:29:27.820Z,97581.50
2022-08-21T08:31:59.978Z,97579.28
2022-08-21T08:34:29.219Z,97581.34
2022-08-21T08:36:59.917Z,97572.34
2022-08-21T08:39:30.144Z,97565.06
2022-08-21T08:42:33.686Z,97552.84
2022-08-21T08:45:07.207Z,97555.13
2022-08-21T08:47:40.526Z,97552.91
2022-08-21T08:50:14.853Z,97551.06
2022-08-21T08:52:51.139Z,97546.75
2022-08-21T08:55:27.252Z,97541.63
2022-08-21T08:57:57.567Z,97530.34
2022-08-21T09:00:27.550Z,97526.09
2022-08-21T09:03:03.360Z,97532.19
2022-08-21T09:05:50.463Z,97532.69
2022-08-21T09:08:37.085Z,97511.25
2022-08-21T09:11:33.738Z,97519.47
2022-08-21T09:14:47.924Z,97524.44
2022-08-21T09:17:17.424Z,97509.56
2022-08-21T09:20:36.421Z,97501.19
2022-08-21T09:23:13.917Z,97491.88
2022-08-21T09:26:02.355Z,97490.59
2022-08-21T09:28:37.070Z,97487.16
2022-08-21T09:31:18.704Z,97487.41
2022-08-21T09:33:48.075Z,97474.13
2022-08-21T09:36:43.740Z,97475.91
2022-08-21T09:39:15.466Z,97465.19
2022-08-21T09:41:44.470Z,97462.88
2022-08-21T09:44:13.740Z,97464.56
2022-08-21T09:46:54.554Z,97466.84
2022-08-21T09:49:38.392Z,97460.97
2022-08-21T09:52:27.637Z,97461.97
2022-08-21T09:54:58.299Z,97454.91
2022-08-21T09:57:46.255Z,97449.25
2022-08-21T10:00:27.601Z,97442.09
2022-08-21T10:02:56.627Z,97444.44
2022-08-21T10:05:30.132Z,97441.84
2022-08-21T10:07:59.108Z,97434.91
2022-08-21T10:10:39.496Z,97429.09
2022-08-21T10:13:36.921Z,97426.22
2022-08-21T10:16:14.049Z,97422.94
2022-08-21T10:18:59.302Z,97421.47
2022-08-21T10:21:41.670Z,97420.59
2022-08-21T10:24:31.170Z,97417.53
2022-08-21T10:27:13.350Z,97412.63
2022-08-21T10:29:52.584Z,97412.78
2022-08-21T10:32:56.934Z,97408.88
2022-08-21T10:35:32.685Z,97406.69
2022-08-21T10:38:50.408Z,97404.53
2022-08-21T10:41:31.275Z,97391.00
2022-08-21T10:44:30.171Z,97388.31
2022-08-21T10:47:14.033Z,97392.66
2022-08-21T10:50:06.888Z,97386.38
2022-08-21T10:52:46.421Z,97393.22
2022-08-21T10:55:33.622Z,97383.81
2022-08-21T10:58:26.543Z,97380.16
2022-08-21T11:01:03.593Z,97376.41
2022-08-21T11:03:46.078Z,97384.19
2022-08-21T11:06:26.181Z,97371.47
2022-08-21T11:09:09.756Z,97379.28
2022-08-21T11:11:59.536Z,97373.16
2022-08-21T11:14:57.851Z,97370.88
2022-08-21T11:17:45.583Z,97368.75
2022-08-21T11:20:18.255Z,97373.88
2022-08-21T11:22:58.944Z,97376.78
2022-08-21T11:25:36.461Z,97370.06
2022-08-21T11:28:24.858Z,97361.91
2022-08-21T11:31:00.098Z,97361.44
2022-08-21T11:33:37.373Z,97362.84
2022-08-21T11:36:30.947Z,97355.63
2022-08-21T11:39:14.690Z,97356.09
2022-08-21T11:42:08.758Z,97359.22
2022-08-21T11:45:09.832Z,97356.56
2022-08-21T11:48:02.994Z,97342.34
2022-08-21T11:50:36.155Z,97353.47
2022-08-21T11:53:15.665Z,97346.09
2022-08-21T11:55:53.671Z,97342.81
2022-08-21T11:58:29.189Z,97340.84
2022-08-21T12:01:09.643Z,97337.91
2022-08-21T12:03:42.864Z,97340.47
2022-08-21T12:06:24.127Z,97336.56
2022-08-21T12:09:02.369Z,97329.47
2022-08-21T12:11:31.901Z,97333.59
2022-08-21T12:14:03.509Z,97337.94
2022-08-21T12:16:38.748Z,97336.72
2022-08-21T12:19:33.031Z,97340.59
2022-08-21T12:22:08.497Z,97332.34
2022-08-21T12:25:05.631Z,97331.63
2022-08-21T12:28:05.096Z,97330.66
2022-08-21T12:30:41.186Z,97326.53
2022-08-21T12:33:32.008Z,97319.72
2022-08-21T12:36:27.898Z,97326.59
2022-08-21T12:39:02.314Z,97327.94
2022-08-21T12:41:40.755Z,97329.31
2022-08-21T12:44:30.707Z,97324.81
2022-08-21T12:47:05.111Z,97329.84
2022-08-21T12:49:45.609Z,97322.38
2022-08-21T12:52:35.690Z,97333.84
2022-08-21T12:55:10.030Z,97328.28
2022-08-21T12:57:40.473Z,97333.25
2022-08-21T13:00:14.844Z,97340.53
2022-08-21T13:02:51.598Z,97350.13
2022-08-21T13:05:36.821Z,97344.03
2022-08-21T13:08:08.347Z,97348.88
2022-08-21T13:10:39.082Z,97354.84
2022-08-21T13:13:14.542Z,97356.50
2022-08-21T13:16:00.587Z,97362.31
2022-08-21T13:18:32.805Z,97366.28
2022-08-21T13:21:16.441Z,97363.44
2022-08-21T13:23:49.090Z,97362.13
2022-08-21T13:26:22.250Z,97360.81
2022-08-21T13:28:52.353Z,97356.81
2022-08-21T13:31:33.425Z,97362.47
2022-08-21T13:34:03.019Z,97361.09
2022-08-21T13:36:36.647Z,97368.44
2022-08-21T13:39:09.103Z,97369.06
2022-08-21T13:41:42.687Z,97370.41
2022-08-21T13:44:37.592Z,97371.75
2022-08-21T13:47:08.804Z,97370.03
2022-08-21T13:49:44.375Z,97370.69
2022-08-21T13:52:25.851Z,97371.38
2022-08-21T13:55:03.474Z,97371.03
2022-08-21T13:57:35.569Z,97384.78
2022-08-21T14:00:18.092Z,97385.28
2022-08-21T14:02:51.821Z,97386.44
2022-08-21T14:05:29.646Z,97389.63
2022-08-21T14:08:22.735Z,97394.41
2022-08-21T14:11:00.337Z,97388.56
2022-08-21T14:13:39.059Z,97391.72
2022-08-21T14:16:16.600Z,97391.59
2022-08-21T14:18:48.504Z,97380.94
2022-08-21T14:21:29.692Z,97385.75
2022-08-21T14:24:41.447Z,97395.50
2022-08-21T14:27:10.685Z,97391.28
2022-08-21T14:29:44.106Z,97389.19
2022-08-21T14:32:24.948Z,97397.38
2022-08-21T14:34:58.045Z,97398.19
2022-08-21T14:37:28.556Z,97397.38
2022-08-21T14:39:57.630Z,97402.34
2022-08-21T14:42:27.364Z,97403.91
2022-08-21T14:45:02.208Z,97410.75
2022-08-21T14:47:31.047Z,97403.41
2022-08-21T14:50:00.610Z,97407.69
2022-08-21T14:52:29.347Z,97404.88
2022-08-21T14:54:58.613Z,97412.28
2022-08-21T14:57:29.266Z,97407.19
2022-08-21T15:00:01.765Z,97418.41
2022-08-21T15:02:31.367Z,97417.03
2022-08-21T15:05:00.416Z,97413.84
2022-08-21T15:07:29.567Z,97416.19
2022-08-21T15:09:58.679Z,97424.91
2022-08-21T15:12:28.190Z,97423.53
2022-08-21T15:14:57.512Z,97424.56
2022-08-21T15:17:26.675Z,97425.19
2022-08-21T15:19:55.758Z,97425.97
2022-08-21T15:22:27.772Z,97433.44
2022-08-21T15:24:57.234Z,97434.41
2022-08-21T15:27:26.072Z,97428.72
2022-08-21T15:29:56.150Z,97425.41
2022-08-21T15:32:29.327Z,97419.81
2022-08-21T15:34:59.564Z,97418.75
2022-08-21T15:37:28.887Z,97422.38
2022-08-21T15:39:57.677Z,97426.34
2022-08-21T15:42:29.294Z,97431.03
2022-08-21T15:45:00.143Z,97430.31
2022-08-21T15:47:35.603Z,97423.75
2022-08-21T15:50:10.024Z,97427.41
2022-08-21T15:52:39.519Z,97434.59
2022-08-21T15:55:09.380Z,97434.59
2022-08-21T15:57:39.709Z,97428.91
2022-08-21T16:00:16.328Z,97432.31
2022-08-21T16:02:49.311Z,97436.56
2022-08-21T16:05:18.973Z,97442.31
2022-08-21T16:07:49.540Z,97446.75
2022-08-21T16:10:22.060Z,97444.97
2022-08-21T16:13:00.973Z,97434.75
2022-08-21T16:15:30.930Z,97440.94
2022-08-21T16:18:00.716Z,97436.91
2022-08-21T16:20:31.133Z,97443.00
2022-08-21T16:23:01.210Z,97446.38
2022-08-21T16:25:30.539Z,97439.44
2022-08-21T16:28:04.026Z,97441.47
2022-08-21T16:30:33.744Z,97439.72
2022-08-21T16:33:04.416Z,97439.13
2022-08-21T16:35:33.673Z,97445.69
2022-08-21T16:38:03.552Z,97440.72
2022-08-21T16:40:32.274Z,97448.97
2022-08-21T16:43:01.161Z,97445.31
2022-08-21T16:45:33.230Z,97441.84
2022-08-21T16:48:05.555Z,97449.94
2022-08-21T16:50:34.493Z,97451.22
2022-08-21T16:53:03.710Z,97438.44
2022-08-21T16:55:32.974Z,97443.88
2022-08-21T16:58:04.200Z,97440.63
2022-08-21T17:00:33.485Z,97434.97
2022-08-21T17:03:02.272Z,97436.25
2022-08-21T17:05:31.363Z,97437.38
2022-08-21T17:08:00.241Z,97437.22
2022-08-21T17:10:29.136Z,97433.59
2022-08-21T17:13:00.525Z,97439.28
2022-08-21T17:15:33.647Z,97443.75
2022-08-21T17:18:04.260Z,97432.75
2022-08-21T17:20:33.548Z,97432.75
2022-08-21T17:23:02.280Z,97437.22
2022-08-21T17:25:32.618Z,97431.34
2022-08-21T17:28:01.929Z,97431.78
2022-08-21T17:30:31.064Z,97420.66
2022-08-21T17:33:01.834Z,97428.00
2022-08-21T17:35:31.041Z,97425.81
2022-08-21T17:38:01.303Z,97427.03
2022-08-21T17:40:32.405Z,97425.50
2022-08-21T17:43:09.752Z,97421.56
2022-08-21T17:45:43.620Z,97420.97
2022-08-21T17:48:13.262Z,97418.63
2022-08-21T17:50:42.347Z,97420.88
2022-08-21T17:53:11.299Z,97422.53
2022-08-21T17:55:42.580Z,97426.16
2022-08-21T17:58:14.546Z,97420.06
2022-08-21T18:00:44.279Z,97419.22
2022-08-21T18:03:21.612Z,97413.03
2022-08-21T18:05:52.871Z,97415.28
2022-08-21T18:08:21.903Z,97405.69
2022-08-21T18:10:53.163Z,97414.94
2022-08-21T18:13:27.816Z,97408.41
2022-08-21T18:15:58.813Z,97400.91
2022-08-21T18:18:29.809Z,97402.22
2022-08-21T18:20:59.015Z,97402.50
2022-08-21T18:23:44.351Z,97396.69
2022-08-21T18:26:24.829Z,97389.47
2022-08-21T18:28:54.143Z,97390.34
2022-08-21T18:31:23.252Z,97395.16
2022-08-21T18:33:57.961Z,97385.41
2022-08-21T18:36:31.052Z,97383.22
2022-08-21T18:39:13.851Z,97386.81
2022-08-21T18:41:50.472Z,97380.34
2022-08-21T18:44:23.194Z,97386.78
2022-08-21T18:47:05.635Z,97384.41
2022-08-21T18:49:34.806Z,97389.25
2022-08-21T18:52:03.953Z,97389.34
2022-08-21T18:54:33.400Z,97385.94
2022-08-21T18:57:09.095Z,97385.09
2022-08-21T18:59:39.024Z,97383.91
2022-08-21T19:02:09.242Z,97392.69
2022-08-21T19:07:28.527Z,97377.34
2022-08-21T19:10:24.283Z,97370.16
2022-08-21T19:12:47.251Z,97369.84
2022-08-21T19:15:18.999Z,97370.69
2022-08-21T19:17:50.739Z,97365.00
2022-08-21T19:20:27.695Z,97363.28
2022-08-21T19:22:57.661Z,97358.06
2022-08-21T19:25:33.870Z,97355.09
2022-08-21T19:28:13.342Z,97354.03
2022-08-21T19:30:47.933Z,97342.94
2022-08-21T19:33:23.404Z,97346.41
2022-08-21T19:35:54.587Z,97345.50
2022-08-21T19:38:24.520Z,97342.41
2022-08-21T19:40:56.018Z,97344.53
2022-08-21T19:43:26.313Z,97337.41
2022-08-21T19:46:00.445Z,97337.03
2022-08-21T19:48:30.707Z,97337.81
2022-08-21T19:51:00.081Z,97335.16
2022-08-21T19:53:29.456Z,97336.41
2022-08-21T19:55:58.646Z,97332.09
2022-08-21T19:58:36.239Z,97331.19
2022-08-21T20:01:16.550Z,97328.19
2022-08-21T20:03:54.147Z,97323.44
2022-08-21T20:06:25.391Z,97323.75
2022-08-21T20:08:56.136Z,97321.22
2022-08-21T20:11:32.660Z,97320.63
2022-08-21T20:14:02.377Z,97314.53
2022-08-21T20:16:34.743Z,97316.22
2022-08-21T20:19:06.232Z,97313.75
2022-08-21T20:21:43.935Z,97311.91
2022-08-21T20:24:15.468Z,97316.22
2022-08-21T20:26:48.766Z,97317.34
2022-08-21T20:29:24.626Z,97313.47
2022-08-21T20:32:01.206Z,97313.78
2022-08-21T20:34:30.474Z,97317.44
2022-08-21T20:37:01.044Z,97310.47
2022-08-21T20:39:30.068Z,97311.22
2022-08-21T20:41:59.927Z,97312.06
2022-08-21T20:44:33.708Z,97312.81
2022-08-21T20:47:08.534Z,97311.09
2022-08-21T20:49:49.496Z,97311.16
2022-08-21T20:52:20.530Z,97315.97
2022-08-21T20:55:03.116Z,97316.06
2022-08-21T20:57:51.164Z,97313.47
2022-08-21T21:00:23.339Z,97305.25
2022-08-21T21:03:06.514Z,97305.50
2022-08-21T21:05:42.593Z,97303.50
2022-08-21T21:08:31.810Z,97304.19
2022-08-21T21:11:24.109Z,97304.97
2022-08-21T21:14:05.584Z,97297.78
2022-08-21T21:16:51.122Z,97304.66
2022-08-21T21:19:58.508Z,97298.91
2022-08-21T21:22:43.545Z,97303.91
2022-08-21T21:25:20.184Z,97302.00
2022-08-21T21:27:59.444Z,97298.53
2022-08-21T21:30:36.797Z,97296.19
2022-08-21T21:33:06.630Z,97304.38
2022-08-21T21:36:11.727Z,97299.22
2022-08-21T21:38:55.271Z,97303.16
2022-08-21T21:41:59.032Z,97295.00
2022-08-21T21:45:07.136Z,97299.53
2022-08-21T21:47:45.900Z,97298.16
2022-08-21T21:50:46.522Z,97288.56
2022-08-21T21:53:21.376Z,97292.03
2022-08-21T21:55:56.185Z,97292.47
2022-08-21T21:58:52.876Z,97292.47
2022-08-21T22:01:30.447Z,97303.44
2022-08-21T22:04:03.940Z,97296.13
2022-08-21T22:06:57.735Z,97293.63
2022-08-21T22:09:43.862Z,97295.34
2022-08-21T22:12:25.410Z,97303.66
2022-08-21T22:14:54.385Z,97296.72
2022-08-21T22:17:54.174Z,97295.66
2022-08-21T22:20:35.230Z,97293.69
2022-08-21T22:23:10.395Z,97296.53
2022-08-21T22:25:45.438Z,97296.25
2022-08-21T22:28:18.023Z,97298.22
2022-08-21T22:31:12.913Z,97298.97
2022-08-21T22:33:43.571Z,97292.38
2022-08-21T22:36:20.575Z,97299.81
2022-08-21T22:41:42.909Z,97292.94
2022-08-21T22:44:27.184Z,97279.19
2022-08-21T22:47:03.041Z,97288.09
2022-08-21T22:49:49.816Z,97282.22
2022-08-21T22:52:26.790Z,97285.84
2022-08-21T22:54:59.991Z,97286.72
2022-08-21T22:57:36.717Z,97280.25
2022-08-21T23:00:12.148Z,97284.03
2022-08-21T23:02:52.241Z,97277.53
2022-08-21T23:05:33.068Z,97277.53
2022-08-21T23:08:27.439Z,97281.59
2022-08-21T23:11:03.033Z,97275.72
2022-08-21T23:13:45.929Z,97282.81
2022-08-21T23:16:56.843Z,97278.06
2022-08-21T23:19:38.019Z,97277.00
2022-08-21T23:22:33.616Z,97275.94
2022-08-21T23:25:27.440Z,97278.59
2022-08-21T23:28:18.955Z,97268.63
2022-08-21T23:31:26.776Z,97265.50
2022-08-21T23:34:06.115Z,97270.38
2022-08-21T23:37:08.401Z,97267.56
2022-08-21T23:40:18.563Z,97266.13
2022-08-21T23:42:50.142Z,97273.78
2022-08-21T23:45:48.973Z,97269.97
2022-08-21T23:48:38.429Z,97279.00
2022-08-21T23:51:45.632Z,97274.03
2022-08-21T23:54:49.397Z,97283.00
2022-08-21T23:57:37.027Z,97284.13
